sensor_id;sensor_type;location;lat;lon;timestamp;P1;durP1;ratioP1;P2;durP2;ratioP2
79706;SDS011;69200;53.612;-2.416;2023-11-19T00:01:31;16.05;;;2.58;;
79706;SDS011;69200;53.612;-2.416;2023-11-19T00:03:57;17.05;;;2.08;;
79706;SDS011;69200;53.612;-2.416;2023-11-19T00:06:23;18.30;;;2.75;;
79706;SDS011;69200;53.612;-2.416;2023-11-19T00:08:48;16.25;;;3.28;;
79706;SDS011;69200;53.612;-2.416;2023-11-19T00:11:15;21.80;;;3.60;;
79706;SDS011;69200;53.612;-2.416;2023-11-19T00:13:40;13.20;;;2.20;;
79706;SDS011;69200;53.612;-2.416;2023-11-19T00:16:06;21.58;;;2.42;;
79706;SDS011;69200;53.612;-2.416;2023-11-19T00:18:32;19.30;;;2.30;;
79706;SDS011;69200;53.612;-2.416;2023-11-19T00:20:58;13.27;;;2.20;;
79706;SDS011;69200;53.612;-2.416;2023-11-19T00:23:24;22.20;;;2.28;;
79706;SDS011;69200;53.612;-2.416;2023-11-19T00:25:49;9.98;;;1.75;;
79706;SDS011;69200;53.612;-2.416;2023-11-19T00:28:14;8.40;;;1.40;;
79706;SDS011;69200;53.612;-2.416;2023-11-19T00:30:40;14.70;;;2.45;;
79706;SDS011;69200;53.612;-2.416;2023-11-19T00:33:08;15.82;;;2.95;;
79706;SDS011;69200;53.612;-2.416;2023-11-19T00:35:34;16.83;;;2.00;;
79706;SDS011;69200;53.612;-2.416;2023-11-19T00:37:59;12.02;;;2.53;;
79706;SDS011;69200;53.612;-2.416;2023-11-19T00:40:25;17.83;;;2.35;;
79706;SDS011;69200;53.612;-2.416;2023-11-19T00:42:51;17.58;;;2.35;;
79706;SDS011;69200;53.612;-2.416;2023-11-19T00:45:16;15.18;;;2.88;;
79706;SDS011;69200;53.612;-2.416;2023-11-19T00:47:42;14.85;;;2.00;;
79706;SDS011;69200;53.612;-2.416;2023-11-19T00:50:08;18.17;;;2.67;;
79706;SDS011;69200;53.612;-2.416;2023-11-19T00:52:36;13.98;;;1.70;;
79706;SDS011;69200;53.612;-2.416;2023-11-19T00:55:02;16.58;;;1.85;;
79706;SDS011;69200;53.612;-2.416;2023-11-19T00:57:29;20.25;;;2.53;;
79706;SDS011;69200;53.612;-2.416;2023-11-19T00:59:57;15.35;;;2.53;;
79706;SDS011;69200;53.612;-2.416;2023-11-19T01:02:22;13.00;;;2.08;;
79706;SDS011;69200;53.612;-2.416;2023-11-19T01:04:48;11.27;;;1.98;;
79706;SDS011;69200;53.612;-2.416;2023-11-19T01:07:14;18.13;;;2.55;;
79706;SDS011;69200;53.612;-2.416;2023-11-19T01:09:41;18.85;;;2.45;;
79706;SDS011;69200;53.612;-2.416;2023-11-19T01:12:07;15.25;;;2.03;;
79706;SDS011;69200;53.612;-2.416;2023-11-19T01:14:34;12.65;;;1.60;;
79706;SDS011;69200;53.612;-2.416;2023-11-19T01:16:59;16.27;;;2.90;;
79706;SDS011;69200;53.612;-2.416;2023-11-19T01:19:26;21.45;;;2.55;;
79706;SDS011;69200;53.612;-2.416;2023-11-19T01:21:53;15.15;;;1.77;;
79706;SDS011;69200;53.612;-2.416;2023-11-19T01:24:19;13.30;;;1.92;;
79706;SDS011;69200;53.612;-2.416;2023-11-19T01:26:45;10.10;;;2.28;;
79706;SDS011;69200;53.612;-2.416;2023-11-19T01:29:13;13.02;;;1.35;;
79706;SDS011;69200;53.612;-2.416;2023-11-19T01:31:42;14.30;;;1.83;;
79706;SDS011;69200;53.612;-2.416;2023-11-19T01:34:10;7.60;;;2.08;;
79706;SDS011;69200;53.612;-2.416;2023-11-19T01:36:36;13.90;;;1.75;;
79706;SDS011;69200;53.612;-2.416;2023-11-19T01:39:02;10.13;;;1.55;;
79706;SDS011;69200;53.612;-2.416;2023-11-19T01:41:29;9.57;;;1.83;;
79706;SDS011;69200;53.612;-2.416;2023-11-19T01:43:59;9.50;;;1.33;;
79706;SDS011;69200;53.612;-2.416;2023-11-19T01:46:24;9.23;;;1.67;;
79706;SDS011;69200;53.612;-2.416;2023-11-19T01:48:50;12.20;;;2.03;;
79706;SDS011;69200;53.612;-2.416;2023-11-19T01:51:16;7.43;;;1.23;;
79706;SDS011;69200;53.612;-2.416;2023-11-19T01:53:42;7.18;;;1.50;;
79706;SDS011;69200;53.612;-2.416;2023-11-19T01:56:08;11.07;;;2.05;;
79706;SDS011;69200;53.612;-2.416;2023-11-19T01:58:36;21.00;;;2.20;;
79706;SDS011;69200;53.612;-2.416;2023-11-19T02:01:01;12.82;;;1.48;;
79706;SDS011;69200;53.612;-2.416;2023-11-19T02:03:31;14.75;;;2.13;;
79706;SDS011;69200;53.612;-2.416;2023-11-19T02:05:57;11.73;;;1.65;;
79706;SDS011;69200;53.612;-2.416;2023-11-19T02:08:24;14.50;;;1.70;;
79706;SDS011;69200;53.612;-2.416;2023-11-19T02:10:51;8.85;;;1.52;;
79706;SDS011;69200;53.612;-2.416;2023-11-19T02:13:17;16.27;;;1.70;;
79706;SDS011;69200;53.612;-2.416;2023-11-19T02:15:43;6.95;;;1.50;;
79706;SDS011;69200;53.612;-2.416;2023-11-19T02:18:19;11.05;;;1.73;;
79706;SDS011;69200;53.612;-2.416;2023-11-19T02:20:46;7.68;;;1.25;;
79706;SDS011;69200;53.612;-2.416;2023-11-19T02:23:13;9.43;;;1.05;;
79706;SDS011;69200;53.612;-2.416;2023-11-19T02:25:39;7.57;;;1.50;;
79706;SDS011;69200;53.612;-2.416;2023-11-19T02:28:05;9.82;;;1.40;;
79706;SDS011;69200;53.612;-2.416;2023-11-19T02:30:31;10.50;;;1.40;;
79706;SDS011;69200;53.612;-2.416;2023-11-19T02:32:57;11.90;;;1.40;;
79706;SDS011;69200;53.612;-2.416;2023-11-19T02:35:24;11.88;;;1.63;;
79706;SDS011;69200;53.612;-2.416;2023-11-19T02:37:51;9.63;;;1.60;;
79706;SDS011;69200;53.612;-2.416;2023-11-19T02:40:16;10.68;;;1.42;;
79706;SDS011;69200;53.612;-2.416;2023-11-19T02:42:42;9.45;;;1.58;;
79706;SDS011;69200;53.612;-2.416;2023-11-19T02:45:08;6.97;;;1.10;;
79706;SDS011;69200;53.612;-2.416;2023-11-19T02:47:39;9.27;;;1.65;;
79706;SDS011;69200;53.612;-2.416;2023-11-19T02:50:04;9.70;;;1.83;;
79706;SDS011;69200;53.612;-2.416;2023-11-19T02:52:38;11.35;;;2.17;;
79706;SDS011;69200;53.612;-2.416;2023-11-19T02:55:03;8.75;;;1.35;;
79706;SDS011;69200;53.612;-2.416;2023-11-19T02:57:34;16.08;;;2.20;;
79706;SDS011;69200;53.612;-2.416;2023-11-19T02:59:59;9.65;;;1.20;;
79706;SDS011;69200;53.612;-2.416;2023-11-19T03:02:24;7.68;;;1.27;;
79706;SDS011;69200;53.612;-2.416;2023-11-19T03:04:58;15.00;;;1.77;;
79706;SDS011;69200;53.612;-2.416;2023-11-19T03:07:24;9.98;;;1.50;;
79706;SDS011;69200;53.612;-2.416;2023-11-19T03:09:49;9.48;;;1.25;;
79706;SDS011;69200;53.612;-2.416;2023-11-19T03:12:15;13.75;;;1.50;;
79706;SDS011;69200;53.612;-2.416;2023-11-19T03:14:40;10.05;;;1.73;;
79706;SDS011;69200;53.612;-2.416;2023-11-19T03:17:05;23.83;;;1.92;;
79706;SDS011;69200;53.612;-2.416;2023-11-19T03:19:31;13.27;;;1.77;;
79706;SDS011;69200;53.612;-2.416;2023-11-19T03:21:56;11.32;;;2.03;;
79706;SDS011;69200;53.612;-2.416;2023-11-19T03:24:22;20.27;;;2.03;;
79706;SDS011;69200;53.612;-2.416;2023-11-19T03:26:48;19.63;;;2.28;;
79706;SDS011;69200;53.612;-2.416;2023-11-19T03:29:15;10.55;;;1.20;;
79706;SDS011;69200;53.612;-2.416;2023-11-19T03:31:43;10.93;;;2.92;;
79706;SDS011;69200;53.612;-2.416;2023-11-19T03:34:12;9.30;;;1.77;;
79706;SDS011;69200;53.612;-2.416;2023-11-19T03:36:37;9.45;;;1.30;;
79706;SDS011;69200;53.612;-2.416;2023-11-19T03:39:03;10.95;;;1.58;;
79706;SDS011;69200;53.612;-2.416;2023-11-19T03:41:28;11.45;;;1.95;;
79706;SDS011;69200;53.612;-2.416;2023-11-19T03:43:53;8.57;;;1.35;;
79706;SDS011;69200;53.612;-2.416;2023-11-19T03:46:19;9.70;;;1.50;;
79706;SDS011;69200;53.612;-2.416;2023-11-19T03:48:46;9.88;;;1.35;;
79706;SDS011;69200;53.612;-2.416;2023-11-19T03:51:12;12.60;;;1.70;;
79706;SDS011;69200;53.612;-2.416;2023-11-19T03:53:41;11.95;;;1.95;;
79706;SDS011;69200;53.612;-2.416;2023-11-19T03:56:08;10.10;;;1.77;;
79706;SDS011;69200;53.612;-2.416;2023-11-19T03:58:35;10.73;;;1.45;;
79706;SDS011;69200;53.612;-2.416;2023-11-19T04:01:00;15.23;;;1.45;;
79706;SDS011;69200;53.612;-2.416;2023-11-19T04:03:26;16.17;;;1.70;;
79706;SDS011;69200;53.612;-2.416;2023-11-19T04:05:52;10.52;;;1.30;;
79706;SDS011;69200;53.612;-2.416;2023-11-19T04:08:17;5.70;;;1.50;;
79706;SDS011;69200;53.612;-2.416;2023-11-19T04:10:42;8.77;;;1.05;;
79706;SDS011;69200;53.612;-2.416;2023-11-19T04:13:08;14.95;;;1.40;;
79706;SDS011;69200;53.612;-2.416;2023-11-19T04:15:33;8.15;;;1.30;;
79706;SDS011;69200;53.612;-2.416;2023-11-19T04:17:58;10.32;;;1.60;;
79706;SDS011;69200;53.612;-2.416;2023-11-19T04:20:24;11.70;;;1.88;;
79706;SDS011;69200;53.612;-2.416;2023-11-19T04:22:50;10.23;;;1.50;;
79706;SDS011;69200;53.612;-2.416;2023-11-19T04:25:16;11.73;;;1.73;;
79706;SDS011;69200;53.612;-2.416;2023-11-19T04:27:41;9.60;;;1.85;;
79706;SDS011;69200;53.612;-2.416;2023-11-19T04:30:07;15.50;;;1.77;;
79706;SDS011;69200;53.612;-2.416;2023-11-19T04:32:32;9.65;;;1.45;;
79706;SDS011;69200;53.612;-2.416;2023-11-19T04:34:58;12.35;;;1.45;;
79706;SDS011;69200;53.612;-2.416;2023-11-19T04:37:23;14.02;;;1.67;;
79706;SDS011;69200;53.612;-2.416;2023-11-19T04:39:49;14.82;;;1.73;;
79706;SDS011;69200;53.612;-2.416;2023-11-19T04:42:14;9.57;;;1.27;;
79706;SDS011;69200;53.612;-2.416;2023-11-19T04:44:42;12.25;;;1.20;;
79706;SDS011;69200;53.612;-2.416;2023-11-19T04:47:08;8.15;;;0.98;;
79706;SDS011;69200;53.612;-2.416;2023-11-19T04:49:35;15.85;;;1.40;;
79706;SDS011;69200;53.612;-2.416;2023-11-19T04:52:08;7.55;;;1.52;;
79706;SDS011;69200;53.612;-2.416;2023-11-19T04:54:33;10.15;;;1.67;;
79706;SDS011;69200;53.612;-2.416;2023-11-19T04:56:59;8.48;;;1.38;;
79706;SDS011;69200;53.612;-2.416;2023-11-19T04:59:24;6.47;;;1.25;;
79706;SDS011;69200;53.612;-2.416;2023-11-19T05:01:49;13.82;;;1.98;;
79706;SDS011;69200;53.612;-2.416;2023-11-19T05:04:15;9.82;;;1.70;;
79706;SDS011;69200;53.612;-2.416;2023-11-19T05:06:43;15.02;;;1.42;;
79706;SDS011;69200;53.612;-2.416;2023-11-19T05:09:09;10.15;;;1.67;;
79706;SDS011;69200;53.612;-2.416;2023-11-19T05:11:37;14.27;;;1.80;;
79706;SDS011;69200;53.612;-2.416;2023-11-19T05:14:03;12.38;;;2.05;;
79706;SDS011;69200;53.612;-2.416;2023-11-19T05:16:29;16.00;;;2.13;;
79706;SDS011;69200;53.612;-2.416;2023-11-19T05:18:54;15.80;;;1.80;;
79706;SDS011;69200;53.612;-2.416;2023-11-19T05:21:20;10.00;;;1.90;;
79706;SDS011;69200;53.612;-2.416;2023-11-19T05:23:45;14.10;;;1.98;;
79706;SDS011;69200;53.612;-2.416;2023-11-19T05:26:19;12.70;;;1.73;;
79706;SDS011;69200;53.612;-2.416;2023-11-19T05:28:45;16.85;;;2.30;;
79706;SDS011;69200;53.612;-2.416;2023-11-19T05:31:11;16.27;;;2.03;;
79706;SDS011;69200;53.612;-2.416;2023-11-19T05:33:36;16.30;;;2.50;;
79706;SDS011;69200;53.612;-2.416;2023-11-19T05:36:01;17.92;;;2.10;;
79706;SDS011;69200;53.612;-2.416;2023-11-19T05:38:28;13.68;;;1.95;;
79706;SDS011;69200;53.612;-2.416;2023-11-19T05:40:54;11.07;;;1.20;;
79706;SDS011;69200;53.612;-2.416;2023-11-19T05:43:20;13.07;;;1.90;;
79706;SDS011;69200;53.612;-2.416;2023-11-19T05:45:46;11.68;;;1.50;;
79706;SDS011;69200;53.612;-2.416;2023-11-19T05:48:11;16.38;;;1.60;;
79706;SDS011;69200;53.612;-2.416;2023-11-19T05:50:37;12.23;;;2.10;;
79706;SDS011;69200;53.612;-2.416;2023-11-19T05:53:02;15.23;;;2.42;;
79706;SDS011;69200;53.612;-2.416;2023-11-19T05:55:30;9.57;;;1.40;;
79706;SDS011;69200;53.612;-2.416;2023-11-19T05:57:56;11.10;;;1.20;;
79706;SDS011;69200;53.612;-2.416;2023-11-19T06:00:21;6.75;;;1.67;;
79706;SDS011;69200;53.612;-2.416;2023-11-19T06:02:47;9.40;;;1.42;;
79706;SDS011;69200;53.612;-2.416;2023-11-19T06:05:12;8.30;;;1.30;;
79706;SDS011;69200;53.612;-2.416;2023-11-19T06:07:37;7.10;;;1.58;;
79706;SDS011;69200;53.612;-2.416;2023-11-19T06:10:06;7.13;;;1.33;;
79706;SDS011;69200;53.612;-2.416;2023-11-19T06:12:34;17.25;;;2.20;;
79706;SDS011;69200;53.612;-2.416;2023-11-19T06:15:03;17.13;;;2.22;;
79706;SDS011;69200;53.612;-2.416;2023-11-19T06:17:33;9.85;;;1.90;;
79706;SDS011;69200;53.612;-2.416;2023-11-19T06:19:58;7.22;;;1.20;;
79706;SDS011;69200;53.612;-2.416;2023-11-19T06:22:23;10.43;;;1.87;;
79706;SDS011;69200;53.612;-2.416;2023-11-19T06:24:49;8.93;;;1.00;;
79706;SDS011;69200;53.612;-2.416;2023-11-19T06:27:14;11.00;;;1.63;;
79706;SDS011;69200;53.612;-2.416;2023-11-19T06:29:40;13.73;;;1.40;;
79706;SDS011;69200;53.612;-2.416;2023-11-19T06:32:06;17.83;;;1.77;;
79706;SDS011;69200;53.612;-2.416;2023-11-19T06:34:33;13.27;;;1.50;;
79706;SDS011;69200;53.612;-2.416;2023-11-19T06:36:58;9.23;;;1.38;;
79706;SDS011;69200;53.612;-2.416;2023-11-19T06:39:24;12.75;;;1.67;;
79706;SDS011;69200;53.612;-2.416;2023-11-19T06:41:49;13.63;;;1.17;;
79706;SDS011;69200;53.612;-2.416;2023-11-19T06:44:15;14.38;;;2.03;;
79706;SDS011;69200;53.612;-2.416;2023-11-19T06:46:40;8.00;;;1.35;;
79706;SDS011;69200;53.612;-2.416;2023-11-19T06:49:06;8.60;;;1.88;;
79706;SDS011;69200;53.612;-2.416;2023-11-19T06:51:34;17.75;;;1.88;;
79706;SDS011;69200;53.612;-2.416;2023-11-19T06:53:59;10.45;;;1.80;;
79706;SDS011;69200;53.612;-2.416;2023-11-19T06:56:25;13.57;;;2.20;;
79706;SDS011;69200;53.612;-2.416;2023-11-19T06:58:51;10.55;;;1.50;;
79706;SDS011;69200;53.612;-2.416;2023-11-19T07:01:18;13.40;;;2.17;;
79706;SDS011;69200;53.612;-2.416;2023-11-19T07:03:44;6.35;;;1.13;;
79706;SDS011;69200;53.612;-2.416;2023-11-19T07:06:11;8.80;;;1.35;;
79706;SDS011;69200;53.612;-2.416;2023-11-19T07:08:38;6.85;;;1.10;;
79706;SDS011;69200;53.612;-2.416;2023-11-19T07:11:03;8.02;;;1.10;;
79706;SDS011;69200;53.612;-2.416;2023-11-19T07:13:29;16.08;;;1.65;;
79706;SDS011;69200;53.612;-2.416;2023-11-19T07:15:55;8.07;;;1.20;;
79706;SDS011;69200;53.612;-2.416;2023-11-19T07:18:21;11.02;;;1.55;;
79706;SDS011;69200;53.612;-2.416;2023-11-19T07:20:47;12.13;;;1.90;;
79706;SDS011;69200;53.612;-2.416;2023-11-19T07:23:13;13.32;;;1.73;;
79706;SDS011;69200;53.612;-2.416;2023-11-19T07:25:41;8.15;;;1.50;;
79706;SDS011;69200;53.612;-2.416;2023-11-19T07:28:08;12.00;;;1.90;;
79706;SDS011;69200;53.612;-2.416;2023-11-19T07:30:35;9.82;;;1.73;;
79706;SDS011;69200;53.612;-2.416;2023-11-19T07:33:00;9.77;;;1.45;;
79706;SDS011;69200;53.612;-2.416;2023-11-19T07:35:26;9.52;;;1.58;;
79706;SDS011;69200;53.612;-2.416;2023-11-19T07:37:51;10.82;;;1.13;;
79706;SDS011;69200;53.612;-2.416;2023-11-19T07:40:16;11.23;;;1.50;;
79706;SDS011;69200;53.612;-2.416;2023-11-19T07:42:42;9.02;;;1.27;;
79706;SDS011;69200;53.612;-2.416;2023-11-19T07:45:07;13.07;;;1.55;;
79706;SDS011;69200;53.612;-2.416;2023-11-19T07:47:33;5.97;;;0.90;;
79706;SDS011;69200;53.612;-2.416;2023-11-19T07:49:59;9.60;;;1.23;;
79706;SDS011;69200;53.612;-2.416;2023-11-19T07:52:24;11.20;;;1.42;;
79706;SDS011;69200;53.612;-2.416;2023-11-19T07:54:50;7.18;;;1.15;;
79706;SDS011;69200;53.612;-2.416;2023-11-19T07:57:15;7.85;;;1.13;;
79706;SDS011;69200;53.612;-2.416;2023-11-19T07:59:40;11.88;;;1.85;;
79706;SDS011;69200;53.612;-2.416;2023-11-19T08:02:06;13.13;;;1.60;;
79706;SDS011;69200;53.612;-2.416;2023-11-19T08:04:31;10.85;;;1.67;;
79706;SDS011;69200;53.612;-2.416;2023-11-19T08:06:56;11.25;;;1.55;;
79706;SDS011;69200;53.612;-2.416;2023-11-19T08:09:22;8.18;;;1.45;;
79706;SDS011;69200;53.612;-2.416;2023-11-19T08:11:48;6.95;;;1.42;;
79706;SDS011;69200;53.612;-2.416;2023-11-19T08:14:13;11.48;;;1.45;;
79706;SDS011;69200;53.612;-2.416;2023-11-19T08:16:39;4.60;;;0.80;;
79706;SDS011;69200;53.612;-2.416;2023-11-19T08:19:04;10.73;;;1.65;;
79706;SDS011;69200;53.612;-2.416;2023-11-19T08:21:30;8.25;;;1.90;;
79706;SDS011;69200;53.612;-2.416;2023-11-19T08:23:55;8.05;;;1.80;;
79706;SDS011;69200;53.612;-2.416;2023-11-19T08:26:21;11.90;;;1.92;;
79706;SDS011;69200;53.612;-2.416;2023-11-19T08:28:46;7.28;;;0.90;;
79706;SDS011;69200;53.612;-2.416;2023-11-19T08:31:12;10.20;;;1.48;;
79706;SDS011;69200;53.612;-2.416;2023-11-19T08:33:37;7.40;;;1.50;;
79706;SDS011;69200;53.612;-2.416;2023-11-19T08:36:03;6.43;;;0.98;;
79706;SDS011;69200;53.612;-2.416;2023-11-19T08:38:29;7.50;;;0.95;;
79706;SDS011;69200;53.612;-2.416;2023-11-19T08:40:55;9.15;;;1.23;;
79706;SDS011;69200;53.612;-2.416;2023-11-19T08:43:25;8.88;;;1.10;;
79706;SDS011;69200;53.612;-2.416;2023-11-19T08:45:51;10.10;;;1.55;;
79706;SDS011;69200;53.612;-2.416;2023-11-19T08:48:16;15.93;;;1.85;;
79706;SDS011;69200;53.612;-2.416;2023-11-19T08:50:41;10.27;;;1.33;;
79706;SDS011;69200;53.612;-2.416;2023-11-19T08:53:07;9.73;;;1.27;;
79706;SDS011;69200;53.612;-2.416;2023-11-19T08:55:32;6.75;;;1.30;;
79706;SDS011;69200;53.612;-2.416;2023-11-19T08:57:57;7.93;;;1.52;;
79706;SDS011;69200;53.612;-2.416;2023-11-19T09:00:23;7.50;;;1.40;;
79706;SDS011;69200;53.612;-2.416;2023-11-19T09:02:48;12.60;;;1.50;;
79706;SDS011;69200;53.612;-2.416;2023-11-19T09:05:14;12.20;;;1.60;;
79706;SDS011;69200;53.612;-2.416;2023-11-19T09:07:39;13.63;;;1.77;;
79706;SDS011;69200;53.612;-2.416;2023-11-19T09:10:04;8.25;;;1.52;;
79706;SDS011;69200;53.612;-2.416;2023-11-19T09:12:30;9.45;;;1.80;;
79706;SDS011;69200;53.612;-2.416;2023-11-19T09:14:56;9.27;;;1.38;;
79706;SDS011;69200;53.612;-2.416;2023-11-19T09:17:21;7.00;;;1.15;;
79706;SDS011;69200;53.612;-2.416;2023-11-19T09:19:47;11.68;;;1.40;;
79706;SDS011;69200;53.612;-2.416;2023-11-19T09:22:12;17.33;;;1.75;;
79706;SDS011;69200;53.612;-2.416;2023-11-19T09:24:37;13.65;;;1.80;;
79706;SDS011;69200;53.612;-2.416;2023-11-19T09:27:03;10.03;;;2.00;;
79706;SDS011;69200;53.612;-2.416;2023-11-19T09:29:31;9.57;;;1.30;;
79706;SDS011;69200;53.612;-2.416;2023-11-19T09:31:57;11.93;;;1.92;;
79706;SDS011;69200;53.612;-2.416;2023-11-19T09:34:23;12.17;;;1.93;;
79706;SDS011;69200;53.612;-2.416;2023-11-19T09:36:48;18.15;;;2.05;;
79706;SDS011;69200;53.612;-2.416;2023-11-19T09:39:13;10.13;;;1.42;;
79706;SDS011;69200;53.612;-2.416;2023-11-19T09:41:43;8.45;;;1.88;;
79706;SDS011;69200;53.612;-2.416;2023-11-19T09:44:10;12.18;;;1.83;;
79706;SDS011;69200;53.612;-2.416;2023-11-19T09:46:36;9.40;;;1.85;;
79706;SDS011;69200;53.612;-2.416;2023-11-19T09:49:06;8.48;;;1.02;;
79706;SDS011;69200;53.612;-2.416;2023-11-19T09:51:34;9.95;;;1.58;;
79706;SDS011;69200;53.612;-2.416;2023-11-19T09:54:00;9.80;;;1.75;;
79706;SDS011;69200;53.612;-2.416;2023-11-19T09:56:26;10.02;;;1.33;;
79706;SDS011;69200;53.612;-2.416;2023-11-19T09:58:54;13.60;;;1.77;;
79706;SDS011;69200;53.612;-2.416;2023-11-19T10:01:20;10.82;;;1.65;;
79706;SDS011;69200;53.612;-2.416;2023-11-19T10:03:46;10.15;;;1.40;;
79706;SDS011;69200;53.612;-2.416;2023-11-19T10:06:12;9.80;;;1.42;;
79706;SDS011;69200;53.612;-2.416;2023-11-19T10:08:40;11.80;;;1.52;;
79706;SDS011;69200;53.612;-2.416;2023-11-19T10:11:06;9.13;;;1.20;;
79706;SDS011;69200;53.612;-2.416;2023-11-19T10:13:36;7.72;;;1.30;;
79706;SDS011;69200;53.612;-2.416;2023-11-19T10:16:07;9.02;;;1.70;;
79706;SDS011;69200;53.612;-2.416;2023-11-19T10:18:33;9.32;;;1.88;;
79706;SDS011;69200;53.612;-2.416;2023-11-19T10:21:03;8.55;;;1.70;;
79706;SDS011;69200;53.612;-2.416;2023-11-19T10:23:31;8.60;;;1.30;;
79706;SDS011;69200;53.612;-2.416;2023-11-19T10:26:12;7.72;;;1.55;;
79706;SDS011;69200;53.612;-2.416;2023-11-19T10:28:40;9.02;;;1.60;;
79706;SDS011;69200;53.612;-2.416;2023-11-19T10:31:11;11.32;;;1.65;;
79706;SDS011;69200;53.612;-2.416;2023-11-19T10:33:39;10.48;;;1.58;;
79706;SDS011;69200;53.612;-2.416;2023-11-19T10:36:05;6.20;;;1.17;;
79706;SDS011;69200;53.612;-2.416;2023-11-19T10:38:30;8.20;;;1.42;;
79706;SDS011;69200;53.612;-2.416;2023-11-19T10:40:56;9.50;;;1.80;;
79706;SDS011;69200;53.612;-2.416;2023-11-19T10:43:21;11.05;;;2.00;;
79706;SDS011;69200;53.612;-2.416;2023-11-19T10:45:48;7.93;;;1.45;;
79706;SDS011;69200;53.612;-2.416;2023-11-19T10:48:13;6.25;;;1.50;;
79706;SDS011;69200;53.612;-2.416;2023-11-19T10:50:40;7.78;;;1.33;;
79706;SDS011;69200;53.612;-2.416;2023-11-19T10:53:08;9.68;;;2.25;;
79706;SDS011;69200;53.612;-2.416;2023-11-19T10:55:35;6.65;;;1.50;;
79706;SDS011;69200;53.612;-2.416;2023-11-19T10:58:07;5.95;;;1.42;;
79706;SDS011;69200;53.612;-2.416;2023-11-19T11:00:44;4.32;;;1.17;;
79706;SDS011;69200;53.612;-2.416;2023-11-19T11:03:19;4.82;;;1.05;;
79706;SDS011;69200;53.612;-2.416;2023-11-19T11:05:48;5.00;;;0.88;;
79706;SDS011;69200;53.612;-2.416;2023-11-19T11:08:14;6.53;;;1.13;;
79706;SDS011;69200;53.612;-2.416;2023-11-19T11:10:50;4.57;;;1.00;;
79706;SDS011;69200;53.612;-2.416;2023-11-19T11:13:18;5.18;;;1.10;;
79706;SDS011;69200;53.612;-2.416;2023-11-19T11:15:45;4.88;;;1.10;;
79706;SDS011;69200;53.612;-2.416;2023-11-19T11:18:12;5.50;;;0.98;;
79706;SDS011;69200;53.612;-2.416;2023-11-19T11:20:38;3.22;;;1.02;;
79706;SDS011;69200;53.612;-2.416;2023-11-19T11:29:01;4.45;;;1.02;;
79706;SDS011;69200;53.612;-2.416;2023-11-19T11:39:34;5.95;;;1.42;;
79706;SDS011;69200;53.612;-2.416;2023-11-19T11:50:09;6.90;;;2.00;;
79706;SDS011;69200;53.612;-2.416;2023-11-19T11:53:27;4.10;;;1.60;;
79706;SDS011;69200;53.612;-2.416;2023-11-19T11:55:34;4.65;;;1.80;;
79706;SDS011;69200;53.612;-2.416;2023-11-19T11:58:01;7.03;;;2.03;;
79706;SDS011;69200;53.612;-2.416;2023-11-19T12:00:29;9.45;;;2.45;;
79706;SDS011;69200;53.612;-2.416;2023-11-19T12:02:56;6.20;;;2.25;;
79706;SDS011;69200;53.612;-2.416;2023-11-19T12:05:24;6.65;;;2.53;;
79706;SDS011;69200;53.612;-2.416;2023-11-19T12:08:05;8.35;;;2.35;;
79706;SDS011;69200;53.612;-2.416;2023-11-19T12:10:34;7.53;;;2.40;;
79706;SDS011;69200;53.612;-2.416;2023-11-19T12:13:04;6.43;;;2.60;;
79706;SDS011;69200;53.612;-2.416;2023-11-19T12:15:32;6.00;;;2.60;;
79706;SDS011;69200;53.612;-2.416;2023-11-19T12:17:58;3.22;;;1.08;;
79706;SDS011;69200;53.612;-2.416;2023-11-19T12:20:24;6.80;;;2.28;;
79706;SDS011;69200;53.612;-2.416;2023-11-19T12:22:51;5.85;;;2.30;;
79706;SDS011;69200;53.612;-2.416;2023-11-19T12:25:18;5.57;;;2.45;;
79706;SDS011;69200;53.612;-2.416;2023-11-19T12:27:48;6.20;;;2.35;;
79706;SDS011;69200;53.612;-2.416;2023-11-19T12:30:17;5.97;;;2.38;;
79706;SDS011;69200;53.612;-2.416;2023-11-19T12:32:47;6.28;;;2.00;;
79706;SDS011;69200;53.612;-2.416;2023-11-19T12:35:13;5.00;;;2.63;;
79706;SDS011;69200;53.612;-2.416;2023-11-19T12:37:49;6.18;;;2.13;;
79706;SDS011;69200;53.612;-2.416;2023-11-19T12:42:42;6.80;;;2.58;;
79706;SDS011;69200;53.612;-2.416;2023-11-19T12:45:10;5.57;;;2.40;;
79706;SDS011;69200;53.612;-2.416;2023-11-19T12:47:37;4.57;;;1.75;;
79706;SDS011;69200;53.612;-2.416;2023-11-19T12:50:04;5.40;;;2.03;;
79706;SDS011;69200;53.612;-2.416;2023-11-19T12:52:30;5.18;;;1.95;;
79706;SDS011;69200;53.612;-2.416;2023-11-19T12:54:55;5.75;;;1.80;;
79706;SDS011;69200;53.612;-2.416;2023-11-19T12:57:35;4.35;;;1.80;;
79706;SDS011;69200;53.612;-2.416;2023-11-19T13:00:07;6.57;;;1.85;;
79706;SDS011;69200;53.612;-2.416;2023-11-19T13:02:46;5.63;;;2.05;;
79706;SDS011;69200;53.612;-2.416;2023-11-19T13:07:47;2.88;;;1.15;;
79706;SDS011;69200;53.612;-2.416;2023-11-19T13:10:13;3.55;;;1.00;;
79706;SDS011;69200;53.612;-2.416;2023-11-19T13:12:38;3.63;;;1.10;;
79706;SDS011;69200;53.612;-2.416;2023-11-19T13:15:04;3.58;;;0.95;;
79706;SDS011;69200;53.612;-2.416;2023-11-19T13:17:30;2.42;;;0.82;;
79706;SDS011;69200;53.612;-2.416;2023-11-19T13:19:55;2.22;;;0.60;;
79706;SDS011;69200;53.612;-2.416;2023-11-19T13:22:22;3.47;;;0.65;;
79706;SDS011;69200;53.612;-2.416;2023-11-19T13:24:47;1.33;;;0.40;;
79706;SDS011;69200;53.612;-2.416;2023-11-19T13:27:13;5.20;;;0.68;;
79706;SDS011;69200;53.612;-2.416;2023-11-19T13:29:39;2.42;;;0.70;;
79706;SDS011;69200;53.612;-2.416;2023-11-19T13:32:04;2.70;;;0.77;;
79706;SDS011;69200;53.612;-2.416;2023-11-19T13:34:30;3.25;;;0.65;;
79706;SDS011;69200;53.612;-2.416;2023-11-19T13:36:56;3.45;;;0.93;;
79706;SDS011;69200;53.612;-2.416;2023-11-19T13:39:21;4.55;;;1.00;;
79706;SDS011;69200;53.612;-2.416;2023-11-19T13:41:49;5.03;;;0.88;;
79706;SDS011;69200;53.612;-2.416;2023-11-19T13:44:16;6.70;;;1.20;;
79706;SDS011;69200;53.612;-2.416;2023-11-19T13:46:44;4.65;;;0.80;;
79706;SDS011;69200;53.612;-2.416;2023-11-19T13:49:10;3.22;;;0.73;;
79706;SDS011;69200;53.612;-2.416;2023-11-19T13:51:35;2.30;;;0.70;;
79706;SDS011;69200;53.612;-2.416;2023-11-19T13:54:01;2.05;;;0.52;;
79706;SDS011;69200;53.612;-2.416;2023-11-19T13:56:26;5.88;;;0.95;;
79706;SDS011;69200;53.612;-2.416;2023-11-19T13:58:52;2.53;;;0.60;;
79706;SDS011;69200;53.612;-2.416;2023-11-19T14:01:18;1.95;;;0.95;;
79706;SDS011;69200;53.612;-2.416;2023-11-19T14:03:44;5.63;;;1.20;;
79706;SDS011;69200;53.612;-2.416;2023-11-19T14:06:09;4.82;;;0.73;;
79706;SDS011;69200;53.612;-2.416;2023-11-19T14:08:35;2.10;;;0.80;;
79706;SDS011;69200;53.612;-2.416;2023-11-19T14:11:00;6.57;;;0.65;;
79706;SDS011;69200;53.612;-2.416;2023-11-19T14:13:26;4.97;;;0.82;;
79706;SDS011;69200;53.612;-2.416;2023-11-19T14:15:51;5.00;;;0.57;;
79706;SDS011;69200;53.612;-2.416;2023-11-19T14:18:17;5.40;;;0.70;;
79706;SDS011;69200;53.612;-2.416;2023-11-19T14:20:43;2.38;;;0.70;;
79706;SDS011;69200;53.612;-2.416;2023-11-19T14:23:09;4.57;;;0.80;;
79706;SDS011;69200;53.612;-2.416;2023-11-19T14:25:34;4.30;;;0.88;;
79706;SDS011;69200;53.612;-2.416;2023-11-19T14:27:59;6.60;;;1.20;;
79706;SDS011;69200;53.612;-2.416;2023-11-19T14:30:25;3.00;;;0.50;;
79706;SDS011;69200;53.612;-2.416;2023-11-19T14:32:50;1.33;;;0.45;;
79706;SDS011;69200;53.612;-2.416;2023-11-19T14:35:16;5.07;;;0.82;;
79706;SDS011;69200;53.612;-2.416;2023-11-19T14:37:41;2.70;;;0.57;;
79706;SDS011;69200;53.612;-2.416;2023-11-19T14:40:07;3.25;;;0.95;;
79706;SDS011;69200;53.612;-2.416;2023-11-19T14:42:36;3.58;;;0.80;;
79706;SDS011;69200;53.612;-2.416;2023-11-19T14:45:02;1.85;;;0.60;;
79706;SDS011;69200;53.612;-2.416;2023-11-19T14:47:27;3.53;;;0.50;;
79706;SDS011;69200;53.612;-2.416;2023-11-19T14:49:54;1.88;;;0.63;;
79706;SDS011;69200;53.612;-2.416;2023-11-19T14:52:19;1.47;;;0.57;;